Airfield :
LOGIN :

Register | Disclaimer

   EN    FR    IT 

 










Legend :    VFR   Marginal VFR   IFR   Intensive IFR   Very Intensive IFR
Visi :
Ceiling :
>= 8 km
>= 3000ft
5 to 8 km
1000 to 3000 ft
1500m to 5 km
500 to 1000 ft
800 to 1500m
200 to 500 ft
< 800m
< 200 ft
Symbols :   Thunderstorms  Fog  Heavy snow  Heavy precipitations  Wind > 20 kt
SIGMETs :     Misc.  Thunderstorms  Icing  Turbulence  Mountain Waves  Volcanic Ashes







- Airport Elevation : 336 ft
- IATA code : GCI
- Download approach charts


EGJB - Guernsey

CURRENT METAR :
  • 240820Z 23013KT 9999 FEW004 BKN006 16/15 Q1018

EXPIRED METARs :
  • 240750Z 23015KT 9999 FEW003 SCT005 BKN013 16/15 Q1018
  • 240720Z 24016KT 9999 FEW003 BKN005 16/15 Q1018
  • 240650Z 24015KT 9999 FEW004 BKN005 16/15 Q1018
  • 240620Z 24014KT 9999 FEW004 BKN006 BKN014 16/15 Q1018
  • 240550Z 24015KT 9999 FEW004 BKN013 15/15 Q1018
  • 240520Z 24014KT 9999 SCT004 BKN017 15/14 Q1018

TAF TAF EGJB
Valid from the 24 at 09:00 until the 24 at 18:00 UTC


240811Z 2409/2418 25015KT 9999 BKN014
TEMPO 2409/2418 5000 -RADZ BKN004
PROB40
TEMPO 2417/2418 1500 BKN001
ATIS : +44 1481 238 957
No reported NOTAMs for that airfield.



MET'MAP, your aeronautical weather chart ! - Copyright ORBIFLY December 2007 - Disclaimer

ORBIFLY MET'MAP TEAM :

Programming & Development : Alexandra Zaïnal
Concept & Development : Baudouin d'Aumeries
Co-Development & Prog : Marc-Olivier Méhu
Technical & hardware support : Manuel Goepfert

Contact : metmap@orbifly.com




SOURCES & CREDITS :

   NOAA